Time;durP1;ratioP1;P1;durP2;ratioP2;P2;SDS_P1;SDS_P2;PMS_P1;PMS_P2;Temp;Humidity;BMP_temperature;BMP_pressure;BME280_temperature;BME280_humidity;BME280_pressure;Samples;Min_cycle;Max_cycle;Signal;HPM_P1;HPM_P2
2023/12/26 00:00:01;;;;;;;55.47;1.63;;;;;;;;;;5056562;28;20534;-70
2023/12/26 00:02:29;;;;;;;55.70;1.83;;;;;;;;;;5056011;28;20836;-71
2023/12/26 00:04:56;;;;;;;55.80;2.00;;;;;;;;;;5057387;28;20450;-71
2023/12/26 00:07:24;;;;;;;54.93;1.83;;;;;;;;;;5056126;28;20538;-70
2023/12/26 00:09:51;;;;;;;55.33;1.80;;;;;;;;;;5056235;28;20451;-70
2023/12/26 00:12:19;;;;;;;55.60;1.93;;;;;;;;;;5056028;28;20516;-71
2023/12/26 00:14:47;;;;;;;55.67;1.90;;;;;;;;;;5056294;28;20538;-71
2023/12/26 00:17:14;;;;;;;55.17;2.00;;;;;;;;;;5056819;28;20898;-70
2023/12/26 00:19:41;;;;;;;55.47;1.97;;;;;;;;;;5056474;28;20538;-69
2023/12/26 00:22:08;;;;;;;55.70;1.90;;;;;;;;;;5056072;28;20507;-71
2023/12/26 00:24:35;;;;;;;55.50;2.10;;;;;;;;;;5036181;28;20483;-70
2023/12/26 00:27:02;;;;;;;55.67;1.83;;;;;;;;;;5036471;28;20565;-70
2023/12/26 00:29:31;;;;;;;55.67;2.20;;;;;;;;;;5037261;28;20445;-70
2023/12/26 00:31:59;;;;;;;55.20;2.00;;;;;;;;;;5037607;28;20821;-69
2023/12/26 00:34:26;;;;;;;55.50;2.00;;;;;;;;;;5036359;28;20480;-71
2023/12/26 00:36:54;;;;;;;55.23;1.90;;;;;;;;;;5037452;28;20531;-70
2023/12/26 00:39:21;;;;;;;55.70;2.20;;;;;;;;;;5037612;28;20482;-71
2023/12/26 00:41:48;;;;;;;55.80;2.23;;;;;;;;;;5036673;28;20498;-71
2023/12/26 00:44:15;;;;;;;55.27;2.00;;;;;;;;;;5035685;28;20545;-71
2023/12/26 00:46:46;;;;;;;55.33;1.80;;;;;;;;;;5036883;28;20550;-70
2023/12/26 00:49:13;;;;;;;55.70;1.97;;;;;;;;;;5035234;28;20456;-71
2023/12/26 00:51:40;;;;;;;55.40;2.00;;;;;;;;;;5035393;28;20471;-71
2023/12/26 00:54:07;;;;;;;55.67;2.00;;;;;;;;;;5035138;28;20620;-71
2023/12/26 00:56:34;;;;;;;55.67;1.70;;;;;;;;;;5034846;28;20618;-71
2023/12/26 00:59:02;;;;;;;55.70;1.80;;;;;;;;;;5035388;28;20545;-70
2023/12/26 01:01:29;;;;;;;55.40;1.90;;;;;;;;;;5035603;28;20577;-71
2023/12/26 01:03:57;;;;;;;55.60;2.10;;;;;;;;;;5036210;28;20913;-69
2023/12/26 01:06:24;;;;;;;55.70;1.87;;;;;;;;;;5035327;28;20909;-70
2023/12/26 01:08:52;;;;;;;55.80;2.07;;;;;;;;;;5035419;28;20459;-71
2023/12/26 01:11:19;;;;;;;55.27;1.70;;;;;;;;;;5035588;28;20542;-70
2023/12/26 01:13:46;;;;;;;55.60;1.80;;;;;;;;;;5035581;28;20505;-71
2023/12/26 01:16:13;;;;;;;55.67;1.87;;;;;;;;;;5035048;28;20531;-71
2023/12/26 01:18:40;;;;;;;54.87;1.70;;;;;;;;;;5035181;28;20547;-70
2023/12/26 01:21:09;;;;;;;55.47;2.23;;;;;;;;;;5035122;28;20525;-71
2023/12/26 01:23:36;;;;;;;55.33;1.90;;;;;;;;;;5034859;28;20474;-71
2023/12/26 01:26:03;;;;;;;55.70;1.90;;;;;;;;;;5034981;28;20503;-71
2023/12/26 01:28:30;;;;;;;55.60;1.97;;;;;;;;;;5035177;28;20547;-70
2023/12/26 01:30:57;;;;;;;55.13;1.83;;;;;;;;;;5035339;28;20538;-71
2023/12/26 01:33:25;;;;;;;55.47;2.03;;;;;;;;;;5034590;28;20508;-71
2023/12/26 01:35:52;;;;;;;55.77;1.90;;;;;;;;;;5034828;28;20533;-71
2023/12/26 01:38:20;;;;;;;54.90;1.80;;;;;;;;;;5034904;28;20491;-70
2023/12/26 01:40:47;;;;;;;55.30;1.70;;;;;;;;;;5034672;28;20493;-70
2023/12/26 01:43:15;;;;;;;55.53;1.90;;;;;;;;;;5034794;28;20563;-70
2023/12/26 01:45:42;;;;;;;54.97;1.77;;;;;;;;;;5035478;28;20530;-71
2023/12/26 01:48:09;;;;;;;55.60;1.80;;;;;;;;;;5035394;28;20486;-70
2023/12/26 01:50:37;;;;;;;55.70;2.70;;;;;;;;;;5034826;28;20551;-71
2023/12/26 01:53:04;;;;;;;55.70;1.70;;;;;;;;;;5034775;28;20470;-70
2023/12/26 01:55:33;;;;;;;55.57;1.63;;;;;;;;;;5033980;28;20479;-70
2023/12/26 01:58:00;;;;;;;55.27;2.00;;;;;;;;;;5034883;28;20984;-71
2023/12/26 02:00:27;;;;;;;55.37;1.77;;;;;;;;;;5036948;28;20487;-70
2023/12/26 02:02:55;;;;;;;56.17;2.57;;;;;;;;;;5044405;28;20515;-71
2023/12/26 02:05:22;;;;;;;55.70;1.70;;;;;;;;;;5049149;28;20455;-70
2023/12/26 02:07:49;;;;;;;55.70;1.70;;;;;;;;;;5039054;28;20533;-70
2023/12/26 02:10:16;;;;;;;55.97;2.00;;;;;;;;;;5037617;28;20501;-71
2023/12/26 02:12:45;;;;;;;55.43;1.80;;;;;;;;;;5038634;28;20555;-71
2023/12/26 02:15:14;;;;;;;55.37;1.90;;;;;;;;;;5039388;28;20491;-71
2023/12/26 02:17:41;;;;;;;55.03;2.00;;;;;;;;;;5051411;28;20451;-71
2023/12/26 02:20:09;;;;;;;55.43;1.90;;;;;;;;;;5059458;28;20490;-71
2023/12/26 02:22:36;;;;;;;55.87;2.00;;;;;;;;;;5059795;28;20485;-71
2023/12/26 02:25:05;;;;;;;55.20;1.80;;;;;;;;;;5058154;28;20490;-70
2023/12/26 02:27:34;;;;;;;55.27;1.60;;;;;;;;;;5057393;28;20552;-71
2023/12/26 02:30:02;;;;;;;55.47;1.93;;;;;;;;;;5058188;28;20982;-71
2023/12/26 02:32:31;;;;;;;55.40;1.90;;;;;;;;;;5057507;28;21031;-70
2023/12/26 02:35:00;;;;;;;55.57;1.70;;;;;;;;;;5057460;28;20485;-70
2023/12/26 02:37:27;;;;;;;55.10;2.10;;;;;;;;;;5057615;28;20771;-71
2023/12/26 02:39:55;;;;;;;55.63;1.93;;;;;;;;;;5057845;28;20538;-71
2023/12/26 02:42:24;;;;;;;55.23;1.60;;;;;;;;;;5056525;28;20529;-70
2023/12/26 02:44:52;;;;;;;55.60;1.60;;;;;;;;;;5057386;28;20529;-69
2023/12/26 02:47:19;;;;;;;55.60;1.90;;;;;;;;;;5057747;28;20534;-71
2023/12/26 02:49:46;;;;;;;55.37;1.83;;;;;;;;;;5057477;28;20952;-70
2023/12/26 02:52:13;;;;;;;55.47;1.80;;;;;;;;;;5057785;28;20506;-70
2023/12/26 02:54:40;;;;;;;55.07;1.90;;;;;;;;;;5057563;28;20537;-71
2023/12/26 02:57:08;;;;;;;55.10;1.83;;;;;;;;;;5058042;28;20567;-71
2023/12/26 02:59:36;;;;;;;55.57;1.73;;;;;;;;;;5057477;28;20545;-70
2023/12/26 03:02:03;;;;;;;55.50;1.80;;;;;;;;;;5057267;28;20572;-71
2023/12/26 03:04:30;;;;;;;55.67;2.37;;;;;;;;;;5056511;28;20490;-71
2023/12/26 03:06:58;;;;;;;55.33;2.00;;;;;;;;;;5056573;28;20487;-71
2023/12/26 03:09:25;;;;;;;55.27;1.80;;;;;;;;;;5060931;28;20546;-70
2023/12/26 03:11:52;;;;;;;55.20;2.00;;;;;;;;;;5060388;28;20515;-71
2023/12/26 03:14:19;;;;;;;55.50;2.00;;;;;;;;;;5060114;28;20482;-71
2023/12/26 03:16:48;;;;;;;55.43;1.90;;;;;;;;;;5059235;28;20871;-69
2023/12/26 03:19:16;;;;;;;55.47;2.00;;;;;;;;;;5058024;28;21017;-71
2023/12/26 03:21:43;;;;;;;54.97;1.53;;;;;;;;;;5038382;28;20530;-70
2023/12/26 03:24:10;;;;;;;55.47;1.90;;;;;;;;;;5037729;28;20491;-71
2023/12/26 03:26:37;;;;;;;54.87;1.90;;;;;;;;;;5038169;28;20477;-71
2023/12/26 03:29:04;;;;;;;55.37;2.20;;;;;;;;;;5037682;28;20517;-71
2023/12/26 03:31:31;;;;;;;54.70;2.03;;;;;;;;;;5036874;28;20507;-71
2023/12/26 03:34:00;;;;;;;55.33;1.80;;;;;;;;;;5036941;28;20546;-70
2023/12/26 03:36:27;;;;;;;55.07;1.90;;;;;;;;;;5050282;28;20541;-71
2023/12/26 03:38:54;;;;;;;55.57;1.53;;;;;;;;;;5036506;28;20535;-71
2023/12/26 03:41:21;;;;;;;54.97;1.80;;;;;;;;;;5047639;28;20482;-71
2023/12/26 03:43:48;;;;;;;55.07;1.60;;;;;;;;;;5050708;28;20566;-71
2023/12/26 03:46:15;;;;;;;55.00;1.70;;;;;;;;;;5050382;28;20491;-71
2023/12/26 03:48:43;;;;;;;55.30;1.60;;;;;;;;;;5053202;28;21005;-71
2023/12/26 03:51:11;;;;;;;55.50;1.73;;;;;;;;;;5040798;28;20534;-71
2023/12/26 03:53:38;;;;;;;55.50;2.00;;;;;;;;;;5044607;28;20561;-71
2023/12/26 03:56:06;;;;;;;55.57;1.97;;;;;;;;;;5047131;28;20493;-71
2023/12/26 03:58:33;;;;;;;55.10;1.80;;;;;;;;;;5040436;28;20808;-71
2023/12/26 04:01:00;;;;;;;55.47;1.70;;;;;;;;;;5037876;28;20501;-71
2023/12/26 04:03:27;;;;;;;55.37;1.80;;;;;;;;;;5045068;28;20949;-70
2023/12/26 04:05:55;;;;;;;55.17;1.80;;;;;;;;;;5048556;28;20477;-70
2023/12/26 04:08:24;;;;;;;55.37;1.70;;;;;;;;;;5039940;28;20451;-71
2023/12/26 04:10:52;;;;;;;55.53;1.87;;;;;;;;;;5036787;28;20484;-71
2023/12/26 04:13:19;;;;;;;55.50;1.80;;;;;;;;;;5036881;28;20553;-70
2023/12/26 04:15:46;;;;;;;55.27;2.00;;;;;;;;;;5049462;28;20872;-71
2023/12/26 04:18:14;;;;;;;55.57;1.80;;;;;;;;;;5057011;28;20987;-70
2023/12/26 04:20:41;;;;;;;55.07;1.90;;;;;;;;;;5040102;28;20536;-71
2023/12/26 04:23:08;;;;;;;55.53;1.97;;;;;;;;;;5050224;28;20518;-70
2023/12/26 04:25:36;;;;;;;55.30;1.80;;;;;;;;;;5040115;28;20486;-71
2023/12/26 04:28:04;;;;;;;54.93;1.70;;;;;;;;;;5039889;28;20528;-71
2023/12/26 04:30:31;;;;;;;55.47;1.90;;;;;;;;;;5039165;28;20475;-70
2023/12/26 04:32:58;;;;;;;55.60;1.80;;;;;;;;;;5050088;28;20546;-70
2023/12/26 04:35:25;;;;;;;55.27;2.10;;;;;;;;;;5038802;28;20478;-71
2023/12/26 04:37:52;;;;;;;55.47;2.00;;;;;;;;;;5045521;28;20486;-71
2023/12/26 04:40:19;;;;;;;55.47;1.90;;;;;;;;;;5035054;28;20546;-71
2023/12/26 04:42:48;;;;;;;55.57;2.10;;;;;;;;;;5034906;28;20518;-71
2023/12/26 04:45:15;;;;;;;55.40;1.80;;;;;;;;;;5038956;28;20459;-71
2023/12/26 04:47:42;;;;;;;54.90;2.00;;;;;;;;;;5039929;28;20478;-69
2023/12/26 04:50:10;;;;;;;55.60;1.90;;;;;;;;;;5039988;28;20519;-71
2023/12/26 04:52:37;;;;;;;55.03;1.90;;;;;;;;;;5037584;28;20503;-70
2023/12/26 04:55:04;;;;;;;55.70;2.10;;;;;;;;;;5037791;28;20486;-71
2023/12/26 04:57:31;;;;;;;55.43;2.00;;;;;;;;;;5037795;28;20456;-71
2023/12/26 05:00:00;;;;;;;55.43;1.80;;;;;;;;;;5036177;28;21013;-69
2023/12/26 05:02:27;;;;;;;55.23;1.83;;;;;;;;;;5035368;28;20527;-71
2023/12/26 05:04:55;;;;;;;55.27;1.90;;;;;;;;;;5035742;28;20487;-71
2023/12/26 05:07:22;;;;;;;55.23;1.70;;;;;;;;;;5035237;28;20455;-71
2023/12/26 05:09:49;;;;;;;55.13;1.80;;;;;;;;;;5046338;28;20478;-71
2023/12/26 05:12:16;;;;;;;55.17;1.83;;;;;;;;;;5055130;28;20502;-71
2023/12/26 05:14:43;;;;;;;55.27;2.07;;;;;;;;;;5055195;28;20481;-71
2023/12/26 05:17:14;;;;;;;55.30;1.90;;;;;;;;;;5056421;28;20508;-70
2023/12/26 05:19:41;;;;;;;55.53;1.90;;;;;;;;;;5055839;28;20835;-71
2023/12/26 05:22:09;;;;;;;55.37;1.70;;;;;;;;;;5055908;28;20558;-70
2023/12/26 05:24:36;;;;;;;55.47;1.87;;;;;;;;;;5055942;28;20492;-71
2023/12/26 05:27:03;;;;;;;55.60;2.20;;;;;;;;;;5056160;28;20480;-70
2023/12/26 05:29:30;;;;;;;55.27;1.83;;;;;;;;;;5056805;28;20455;-71
2023/12/26 05:31:57;;;;;;;55.73;2.00;;;;;;;;;;5058585;28;20500;-71
2023/12/26 05:34:26;;;;;;;55.57;2.00;;;;;;;;;;5056367;28;20459;-69
2023/12/26 05:36:53;;;;;;;55.60;2.07;;;;;;;;;;5059686;28;20481;-70
2023/12/26 05:39:20;;;;;;;55.40;2.00;;;;;;;;;;5059863;28;20535;-71
2023/12/26 05:41:47;;;;;;;55.50;1.90;;;;;;;;;;5058936;28;20485;-71
2023/12/26 05:44:14;;;;;;;55.07;2.00;;;;;;;;;;5058412;28;20887;-71
2023/12/26 05:46:42;;;;;;;55.03;1.70;;;;;;;;;;5058672;28;20868;-71
2023/12/26 05:49:10;;;;;;;55.70;2.20;;;;;;;;;;5059082;28;20453;-71
2023/12/26 05:51:38;;;;;;;55.50;1.77;;;;;;;;;;5058515;28;20486;-71
2023/12/26 05:54:05;;;;;;;55.37;2.00;;;;;;;;;;5058089;28;20541;-71
2023/12/26 05:56:33;;;;;;;55.30;1.73;;;;;;;;;;5061709;28;20486;-70
2023/12/26 05:59:00;;;;;;;55.17;1.97;;;;;;;;;;5062383;28;20491;-70
2023/12/26 06:01:27;;;;;;;55.90;1.90;;;;;;;;;;5061377;28;20454;-69
2023/12/26 06:03:55;;;;;;;54.87;1.60;;;;;;;;;;5060361;28;20620;-70
2023/12/26 06:06:22;;;;;;;55.57;1.90;;;;;;;;;;5058191;28;20465;-70
2023/12/26 06:08:51;;;;;;;54.97;1.87;;;;;;;;;;5058891;28;20490;-71
2023/12/26 06:11:18;;;;;;;55.47;1.90;;;;;;;;;;5058646;28;20802;-70
2023/12/26 06:13:45;;;;;;;55.40;2.00;;;;;;;;;;5058445;28;20889;-71
2023/12/26 06:16:12;;;;;;;55.50;1.90;;;;;;;;;;5058901;28;20542;-70
2023/12/26 06:18:39;;;;;;;55.33;1.90;;;;;;;;;;5057703;28;20535;-71
2023/12/26 06:21:06;;;;;;;55.27;1.80;;;;;;;;;;5057865;28;20511;-70
2023/12/26 06:23:33;;;;;;;55.67;2.00;;;;;;;;;;5057233;28;20588;-71
2023/12/26 06:26:02;;;;;;;55.57;1.80;;;;;;;;;;5057396;28;20579;-70
2023/12/26 06:28:29;;;;;;;55.13;1.80;;;;;;;;;;5058166;28;20821;-71
2023/12/26 06:30:57;;;;;;;55.70;1.90;;;;;;;;;;5058765;28;20988;-71
2023/12/26 06:33:24;;;;;;;55.60;1.70;;;;;;;;;;5058456;28;20544;-71
2023/12/26 06:35:51;;;;;;;55.57;1.87;;;;;;;;;;5058022;28;20481;-70
2023/12/26 06:38:18;;;;;;;55.07;1.70;;;;;;;;;;5051713;28;20473;-70
2023/12/26 06:40:45;;;;;;;55.17;1.70;;;;;;;;;;5037589;28;20541;-71
2023/12/26 06:43:15;;;;;;;55.30;1.80;;;;;;;;;;5038196;28;20525;-70
2023/12/26 06:45:42;;;;;;;55.40;1.97;;;;;;;;;;5040191;28;20459;-71
2023/12/26 06:48:09;;;;;;;55.60;1.70;;;;;;;;;;5038790;28;20497;-71
2023/12/26 06:50:36;;;;;;;55.67;2.57;;;;;;;;;;5038378;28;20533;-70
2023/12/26 06:53:03;;;;;;;55.27;1.80;;;;;;;;;;5038199;28;20511;-71
2023/12/26 06:55:30;;;;;;;55.47;1.80;;;;;;;;;;5038713;28;20486;-69
2023/12/26 06:57:58;;;;;;;55.80;1.83;;;;;;;;;;5038679;28;20476;-71
2023/12/26 07:00:26;;;;;;;55.40;2.03;;;;;;;;;;5038203;28;20511;-70
2023/12/26 07:02:55;;;;;;;55.70;2.10;;;;;;;;;;5037129;28;20580;-71
2023/12/26 07:05:22;;;;;;;55.60;1.60;;;;;;;;;;5038166;28;20519;-70
2023/12/26 07:07:49;;;;;;;55.67;2.00;;;;;;;;;;5037734;28;20544;-70
2023/12/26 07:10:16;;;;;;;55.47;2.00;;;;;;;;;;5038148;28;20555;-71
2023/12/26 07:12:43;;;;;;;55.27;1.70;;;;;;;;;;5037281;28;20563;-71
2023/12/26 07:15:11;;;;;;;54.90;1.70;;;;;;;;;;5037105;28;20486;-71
2023/12/26 07:17:39;;;;;;;55.60;1.87;;;;;;;;;;5036960;28;20534;-70
2023/12/26 07:20:08;;;;;;;55.33;2.00;;;;;;;;;;5037590;28;20482;-71
2023/12/26 07:22:35;;;;;;;55.30;2.00;;;;;;;;;;5036693;28;20536;-70
2023/12/26 07:25:02;;;;;;;54.97;1.87;;;;;;;;;;5036649;28;20557;-71
2023/12/26 07:27:29;;;;;;;55.20;2.03;;;;;;;;;;5036827;28;20459;-70
2023/12/26 07:29:57;;;;;;;55.37;2.00;;;;;;;;;;5036965;28;20988;-71
2023/12/26 07:32:24;;;;;;;55.17;1.90;;;;;;;;;;5036470;28;20514;-71
2023/12/26 07:34:53;;;;;;;54.87;2.10;;;;;;;;;;5035672;28;20941;-71
2023/12/26 07:37:20;;;;;;;54.83;1.93;;;;;;;;;;5036957;28;20471;-71
2023/12/26 07:39:46;;;;;;;55.60;1.90;;;;;;;;;;5036716;28;20454;-70
2023/12/26 07:42:13;;;;;;;55.10;1.67;;;;;;;;;;5036068;28;21057;-71
2023/12/26 07:44:41;;;;;;;55.43;1.90;;;;;;;;;;5034830;28;20892;-71
2023/12/26 07:47:08;;;;;;;55.20;1.70;;;;;;;;;;5037667;28;20542;-70
2023/12/26 07:49:35;;;;;;;55.57;2.23;;;;;;;;;;5037405;28;20540;-71
2023/12/26 07:52:03;;;;;;;55.47;1.77;;;;;;;;;;5038085;28;20581;-70
2023/12/26 07:54:31;;;;;;;55.50;2.00;;;;;;;;;;5038974;28;20503;-69
2023/12/26 07:56:58;;;;;;;55.47;2.07;;;;;;;;;;5038297;28;20524;-71
2023/12/26 07:59:25;;;;;;;55.27;2.00;;;;;;;;;;5037961;28;20532;-70
2023/12/26 08:01:52;;;;;;;55.70;2.10;;;;;;;;;;5038477;28;20452;-71
2023/12/26 08:04:19;;;;;;;55.40;2.10;;;;;;;;;;5036875;28;20585;-71
2023/12/26 08:06:46;;;;;;;55.60;1.87;;;;;;;;;;5036372;28;20531;-71
2023/12/26 08:09:15;;;;;;;55.40;1.90;;;;;;;;;;5037167;28;20850;-71
2023/12/26 08:14:46;;;;;;;55.07;1.87;;;;;;;;;;5036185;28;20419;-69
2023/12/26 08:17:13;;;;;;;55.90;2.00;;;;;;;;;;5036641;28;20459;-71
2023/12/26 08:19:40;;;;;;;55.70;2.20;;;;;;;;;;5035902;28;20615;-71
2023/12/26 08:22:07;;;;;;;55.23;1.70;;;;;;;;;;5036298;28;20502;-71
2023/12/26 08:24:36;;;;;;;55.57;2.00;;;;;;;;;;5036084;28;20514;-71
2023/12/26 08:27:03;;;;;;;55.47;1.90;;;;;;;;;;5036640;28;20546;-70
2023/12/26 08:29:30;;;;;;;54.47;1.90;;;;;;;;;;5036676;28;20527;-70
2023/12/26 08:31:57;;;;;;;55.13;1.83;;;;;;;;;;5036080;28;20497;-71
2023/12/26 08:34:25;;;;;;;55.57;2.00;;;;;;;;;;5042453;28;20528;-70
2023/12/26 08:36:52;;;;;;;55.43;1.87;;;;;;;;;;5033790;28;21639;-69
2023/12/26 08:39:20;;;;;;;55.33;1.90;;;;;;;;;;5039494;28;20544;-71
2023/12/26 08:41:48;;;;;;;55.80;2.40;;;;;;;;;;5033940;28;20455;-70
2023/12/26 08:44:15;;;;;;;55.87;2.03;;;;;;;;;;5041616;28;20567;-71
2023/12/26 08:46:43;;;;;;;55.07;1.70;;;;;;;;;;5033751;28;20542;-70
2023/12/26 08:49:10;;;;;;;55.37;1.80;;;;;;;;;;5033287;28;20548;-71
2023/12/26 08:51:38;;;;;;;56.00;2.77;;;;;;;;;;5034385;28;21026;-71
2023/12/26 08:54:06;;;;;;;54.77;2.00;;;;;;;;;;5036656;28;20445;-71
2023/12/26 08:56:33;;;;;;;55.10;1.60;;;;;;;;;;5037067;28;20883;-71
2023/12/26 08:59:02;;;;;;;55.07;1.70;;;;;;;;;;5049305;28;20448;-71
2023/12/26 09:01:29;;;;;;;55.20;2.00;;;;;;;;;;5057937;28;20459;-71
2023/12/26 09:03:56;;;;;;;55.37;2.13;;;;;;;;;;5055625;28;20496;-72
2023/12/26 09:06:23;;;;;;;55.60;1.77;;;;;;;;;;5056542;28;20450;-71
2023/12/26 09:08:51;;;;;;;55.60;1.60;;;;;;;;;;5056103;28;20536;-72
2023/12/26 09:11:18;;;;;;;55.57;1.80;;;;;;;;;;5056053;28;20540;-72
2023/12/26 09:13:45;;;;;;;55.50;1.60;;;;;;;;;;5056660;28;20467;-71
2023/12/26 09:16:14;;;;;;;54.87;1.70;;;;;;;;;;5056180;28;20509;-72
2023/12/26 09:18:41;;;;;;;55.60;1.70;;;;;;;;;;5055552;28;20572;-71
2023/12/26 09:21:08;;;;;;;54.97;1.80;;;;;;;;;;5055239;28;20513;-72
2023/12/26 09:23:35;;;;;;;55.50;1.73;;;;;;;;;;5054292;28;20586;-71
2023/12/26 09:26:04;;;;;;;55.33;1.70;;;;;;;;;;5054589;28;20533;-71
2023/12/26 09:28:31;;;;;;;55.30;1.80;;;;;;;;;;5053834;28;20471;-72
2023/12/26 09:30:58;;;;;;;55.27;1.83;;;;;;;;;;5053865;28;20449;-72
2023/12/26 09:33:27;;;;;;;55.03;1.97;;;;;;;;;;5053853;28;20553;-71
2023/12/26 09:35:54;;;;;;;55.60;1.93;;;;;;;;;;5053745;28;20565;-71
2023/12/26 09:38:21;;;;;;;54.60;1.77;;;;;;;;;;5053300;28;20450;-72
2023/12/26 09:40:49;;;;;;;55.30;1.90;;;;;;;;;;5053230;28;20554;-71
2023/12/26 09:43:16;;;;;;;55.27;1.67;;;;;;;;;;5044481;28;20494;-71
2023/12/26 09:45:43;;;;;;;55.60;1.90;;;;;;;;;;5032759;28;20539;-71
2023/12/26 09:48:11;;;;;;;54.40;1.70;;;;;;;;;;5032710;28;20542;-71
2023/12/26 09:50:39;;;;;;;55.60;2.00;;;;;;;;;;5032549;28;20541;-71
2023/12/26 09:53:09;;;;;;;55.37;1.53;;;;;;;;;;5040419;28;20512;-71
2023/12/26 09:55:36;;;;;;;55.50;1.60;;;;;;;;;;5032522;28;20448;-71
2023/12/26 09:58:03;;;;;;;55.70;1.80;;;;;;;;;;5045453;28;20542;-71
2023/12/26 10:00:31;;;;;;;55.30;1.63;;;;;;;;;;5054818;28;21029;-71
2023/12/26 10:02:58;;;;;;;55.60;1.70;;;;;;;;;;5054416;28;20529;-70
2023/12/26 10:05:25;;;;;;;55.60;1.67;;;;;;;;;;5054449;28;20938;-71
2023/12/26 10:07:54;;;;;;;54.93;1.87;;;;;;;;;;5054929;28;20541;-70
2023/12/26 10:10:21;;;;;;;54.67;1.70;;;;;;;;;;5054740;28;20513;-71
2023/12/26 10:12:49;;;;;;;55.60;1.90;;;;;;;;;;5053784;28;20527;-71
2023/12/26 10:15:16;;;;;;;55.60;1.87;;;;;;;;;;5054100;28;20807;-71
2023/12/26 10:17:43;;;;;;;55.37;1.97;;;;;;;;;;5053308;28;20538;-71
2023/12/26 10:20:12;;;;;;;55.40;2.00;;;;;;;;;;5053536;28;20463;-71
2023/12/26 10:22:42;;;;;;;55.27;2.10;;;;;;;;;;5056778;28;20470;-71
2023/12/26 10:25:11;;;;;;;55.60;1.83;;;;;;;;;;5056770;28;20485;-71
2023/12/26 10:27:38;;;;;;;55.57;1.80;;;;;;;;;;5056650;28;20498;-70
2023/12/26 10:30:06;;;;;;;54.87;1.70;;;;;;;;;;5057985;28;20519;-71
2023/12/26 10:32:33;;;;;;;55.17;1.80;;;;;;;;;;5057668;28;20552;-72
2023/12/26 10:35:14;;;;;;;55.20;1.80;;;;;;;;;;5057554;28;20526;-71
2023/12/26 10:37:41;;;;;;;54.87;1.70;;;;;;;;;;5057843;28;20536;-71
2023/12/26 10:40:09;;;;;;;55.27;1.70;;;;;;;;;;5058706;28;20534;-71
2023/12/26 10:42:39;;;;;;;55.90;2.10;;;;;;;;;;5058503;28;21028;-71
2023/12/26 10:45:09;;;;;;;55.23;2.10;;;;;;;;;;5057784;28;20490;-71
2023/12/26 10:47:36;;;;;;;54.97;1.80;;;;;;;;;;5057882;28;20931;-71
2023/12/26 10:50:06;;;;;;;55.67;1.77;;;;;;;;;;5058038;28;20438;-71
2023/12/26 10:52:33;;;;;;;55.70;2.20;;;;;;;;;;5056531;28;20486;-71
2023/12/26 10:55:01;;;;;;;55.33;1.63;;;;;;;;;;5056133;28;20537;-71
2023/12/26 10:57:30;;;;;;;55.60;1.60;;;;;;;;;;5056189;28;20526;-71
2023/12/26 13:51:27;;;;;;;54.40;1.70;;;;;;;;;;5044598;28;20413;-70
2023/12/26 13:53:54;;;;;;;55.70;1.80;;;;;;;;;;5034053;28;20490;-71
2023/12/26 13:56:20;;;;;;;55.03;1.80;;;;;;;;;;5041650;28;20456;-71
2023/12/26 13:58:47;;;;;;;55.40;1.80;;;;;;;;;;5045458;28;20516;-71
2023/12/26 14:01:16;;;;;;;55.50;1.83;;;;;;;;;;5036469;28;20535;-71
2023/12/26 14:03:49;;;;;;;55.23;1.53;;;;;;;;;;5049067;28;20801;-70
2023/12/26 14:06:16;;;;;;;55.20;1.83;;;;;;;;;;5049039;28;20446;-71
2023/12/26 14:08:45;;;;;;;55.13;1.77;;;;;;;;;;5041112;28;20450;-71
2023/12/26 14:11:12;;;;;;;54.97;1.63;;;;;;;;;;5036390;28;20533;-71
2023/12/26 14:13:39;;;;;;;55.47;1.70;;;;;;;;;;5036915;28;20503;-71
2023/12/26 14:16:06;;;;;;;55.70;1.70;;;;;;;;;;5036166;28;20530;-71
2023/12/26 14:18:34;;;;;;;55.27;1.63;;;;;;;;;;5044696;28;20450;-71
2023/12/26 14:21:01;;;;;;;55.27;1.80;;;;;;;;;;5049457;28;20538;-70
2023/12/26 14:23:29;;;;;;;55.40;1.90;;;;;;;;;;5050575;28;20549;-71
2023/12/26 14:25:57;;;;;;;54.87;1.70;;;;;;;;;;5035601;28;20495;-71
2023/12/26 14:28:24;;;;;;;54.93;1.60;;;;;;;;;;5035946;28;20847;-70
2023/12/26 14:30:52;;;;;;;55.07;1.60;;;;;;;;;;5052896;28;20458;-71
2023/12/26 14:33:20;;;;;;;55.07;1.67;;;;;;;;;;5045432;28;20554;-70
2023/12/26 14:35:47;;;;;;;55.50;1.80;;;;;;;;;;5043561;28;20804;-70
2023/12/26 14:38:15;;;;;;;55.37;1.80;;;;;;;;;;5035459;28;20459;-71
2023/12/26 14:40:42;;;;;;;55.30;1.50;;;;;;;;;;5036090;28;20497;-71
2023/12/26 14:43:11;;;;;;;55.30;1.60;;;;;;;;;;5042691;28;20562;-70
2023/12/26 14:45:38;;;;;;;55.43;1.67;;;;;;;;;;5055160;28;21103;-71
2023/12/26 14:48:05;;;;;;;55.50;1.60;;;;;;;;;;5037738;28;20552;-71
2023/12/26 14:50:32;;;;;;;55.70;2.10;;;;;;;;;;5036418;28;20537;-71
2023/12/26 14:53:00;;;;;;;54.77;1.60;;;;;;;;;;5038143;28;20873;-70
2023/12/26 14:55:27;;;;;;;55.17;1.60;;;;;;;;;;5038253;28;20446;-71
2023/12/26 14:57:54;;;;;;;55.30;1.70;;;;;;;;;;5039307;28;20980;-72
2023/12/26 15:00:23;;;;;;;55.13;1.80;;;;;;;;;;5038998;28;20538;-70
2023/12/26 15:02:50;;;;;;;55.43;1.80;;;;;;;;;;5037244;28;20554;-70
2023/12/26 15:05:18;;;;;;;56.77;2.20;;;;;;;;;;5039858;28;20519;-71
2023/12/26 15:07:45;;;;;;;55.33;2.00;;;;;;;;;;5048818;28;20459;-70
2023/12/26 15:10:12;;;;;;;55.07;1.70;;;;;;;;;;5036763;28;20490;-70
2023/12/26 15:12:39;;;;;;;55.27;2.20;;;;;;;;;;5035713;28;20725;-71
2023/12/26 15:15:07;;;;;;;55.30;1.97;;;;;;;;;;5035604;28;20530;-71
2023/12/26 15:17:36;;;;;;;55.27;1.90;;;;;;;;;;5035430;28;20454;-71
2023/12/26 15:20:04;;;;;;;55.57;1.90;;;;;;;;;;5035342;28;20460;-71
2023/12/26 15:22:31;;;;;;;55.17;1.60;;;;;;;;;;5035274;28;20482;-69
2023/12/26 15:24:58;;;;;;;55.50;1.80;;;;;;;;;;5035409;28;20516;-70
2023/12/26 15:27:26;;;;;;;55.50;2.00;;;;;;;;;;5035000;28;20490;-70
2023/12/26 15:29:53;;;;;;;55.03;1.80;;;;;;;;;;5043563;28;20538;-68
2023/12/26 15:32:20;;;;;;;55.50;1.80;;;;;;;;;;5040207;28;20507;-69
2023/12/26 15:34:48;;;;;;;55.60;2.10;;;;;;;;;;5034589;28;20479;-69
2023/12/26 15:37:15;;;;;;;55.60;1.70;;;;;;;;;;5036824;28;20487;-70
2023/12/26 15:39:43;;;;;;;55.50;1.80;;;;;;;;;;5042885;28;20536;-70
2023/12/26 15:42:10;;;;;;;55.03;1.80;;;;;;;;;;5044594;28;20507;-70
2023/12/26 15:44:38;;;;;;;55.20;1.63;;;;;;;;;;5038506;28;20558;-71
2023/12/26 15:47:05;;;;;;;55.47;1.60;;;;;;;;;;5052063;28;20456;-70
2023/12/26 15:49:32;;;;;;;55.50;1.80;;;;;;;;;;5054139;28;20541;-69
2023/12/26 15:52:01;;;;;;;55.23;1.80;;;;;;;;;;5053386;28;20493;-71
2023/12/26 15:54:28;;;;;;;55.50;1.90;;;;;;;;;;5053807;28;20622;-71
2023/12/26 15:56:55;;;;;;;55.20;1.80;;;;;;;;;;5053713;28;20542;-70
2023/12/26 15:59:22;;;;;;;55.07;1.80;;;;;;;;;;5053992;28;20952;-71
2023/12/26 16:01:50;;;;;;;55.37;1.90;;;;;;;;;;5053745;28;20525;-71
2023/12/26 16:04:17;;;;;;;54.30;1.73;;;;;;;;;;5054001;28;20467;-70
2023/12/26 16:06:44;;;;;;;55.40;2.10;;;;;;;;;;5053582;28;20488;-71
2023/12/26 16:09:13;;;;;;;55.30;2.00;;;;;;;;;;5053310;28;20495;-71
2023/12/26 16:11:40;;;;;;;55.47;1.90;;;;;;;;;;5053509;28;20534;-71
2023/12/26 16:14:08;;;;;;;55.50;2.00;;;;;;;;;;5053571;28;20546;-70
2023/12/26 16:16:39;;;;;;;55.47;1.93;;;;;;;;;;5053606;28;20896;-71
2023/12/26 16:19:06;;;;;;;55.60;2.00;;;;;;;;;;5053998;28;20454;-71
2023/12/26 16:21:33;;;;;;;55.70;1.77;;;;;;;;;;5053410;28;20478;-71
2023/12/26 16:24:01;;;;;;;55.17;1.80;;;;;;;;;;5053319;28;20983;-71
2023/12/26 16:26:29;;;;;;;55.07;1.90;;;;;;;;;;5053765;28;20555;-71
2023/12/26 16:28:56;;;;;;;55.37;1.80;;;;;;;;;;5052400;28;20493;-70
2023/12/26 16:31:23;;;;;;;55.43;1.80;;;;;;;;;;5052984;28;20473;-71
2023/12/26 16:33:52;;;;;;;55.27;1.70;;;;;;;;;;5052938;28;20910;-71
2023/12/26 16:36:19;;;;;;;55.07;1.70;;;;;;;;;;5052826;28;20874;-71
2023/12/26 16:38:46;;;;;;;55.17;1.90;;;;;;;;;;5051713;28;20597;-70
2023/12/26 16:41:14;;;;;;;55.27;1.70;;;;;;;;;;5053141;28;20486;-69
2023/12/26 16:43:43;;;;;;;59.10;1.80;;;;;;;;;;5035659;28;20465;-71
2023/12/26 16:46:11;;;;;;;55.57;1.90;;;;;;;;;;5040391;28;20286;-71
2023/12/26 16:48:38;;;;;;;55.40;1.80;;;;;;;;;;5040106;28;20517;-71
2023/12/26 16:51:06;;;;;;;54.87;1.60;;;;;;;;;;5045099;28;20459;-72
2023/12/26 16:53:34;;;;;;;55.53;1.80;;;;;;;;;;5044287;28;20497;-72
2023/12/26 16:56:01;;;;;;;54.97;1.70;;;;;;;;;;5056873;28;20453;-72
2023/12/26 16:58:28;;;;;;;55.40;1.90;;;;;;;;;;5044596;28;20453;-71
2023/12/26 17:00:57;;;;;;;55.60;1.77;;;;;;;;;;5037693;28;20479;-70
2023/12/26 17:03:24;;;;;;;55.33;1.90;;;;;;;;;;5051891;28;20495;-70
2023/12/26 17:05:51;;;;;;;55.37;1.73;;;;;;;;;;5055819;28;20586;-72
2023/12/26 17:08:18;;;;;;;54.97;2.10;;;;;;;;;;5063786;28;20463;-72
2023/12/26 17:10:46;;;;;;;55.43;1.90;;;;;;;;;;5060678;28;20478;-72
2023/12/26 17:13:13;;;;;;;55.17;1.80;;;;;;;;;;5057577;28;21012;-71
2023/12/26 17:15:42;;;;;;;55.60;1.80;;;;;;;;;;5064005;28;20465;-71
2023/12/26 17:21:08;;;;;;;54.77;1.70;;;;;;;;;;5016352;28;20452;-71
2023/12/26 17:23:35;;;;;;;55.20;1.80;;;;;;;;;;5014131;28;20595;-72
2023/12/26 17:26:22;;;;;;;55.43;1.80;;;;;;;;;;5023170;28;20574;-68
2023/12/26 17:28:54;;;;;;;55.50;2.17;;;;;;;;;;5013229;28;20471;-72